sensor_id;sensor_type;location;lat;lon;timestamp;pressure;altitude;pressure_sealevel;temperature;humidity
7614;BME280;3848;42.016;23.098;2022-07-05T00:00:23;97141.22;;;22.91;100.00
7614;BME280;3848;42.016;23.098;2022-07-05T00:02:50;97134.84;;;22.81;100.00
7614;BME280;3848;42.016;23.098;2022-07-05T00:05:17;97149.56;;;22.80;100.00
7614;BME280;3848;42.016;23.098;2022-07-05T00:07:44;97128.38;;;22.74;100.00
7614;BME280;3848;42.016;23.098;2022-07-05T00:10:10;97140.41;;;22.75;100.00
7614;BME280;3848;42.016;23.098;2022-07-05T00:12:39;97137.72;;;22.76;100.00
7614;BME280;3848;42.016;23.098;2022-07-05T00:15:06;97129.59;;;22.67;100.00
7614;BME280;3848;42.016;23.098;2022-07-05T00:17:34;97140.31;;;22.76;100.00
7614;BME280;3848;42.016;23.098;2022-07-05T00:20:00;97144.22;;;22.68;100.00
7614;BME280;3848;42.016;23.098;2022-07-05T00:22:28;97144.59;;;22.62;100.00
7614;BME280;3848;42.016;23.098;2022-07-05T00:24:55;97142.63;;;22.51;100.00
7614;BME280;3848;42.016;23.098;2022-07-05T00:27:22;97143.59;;;22.48;100.00
7614;BME280;3848;42.016;23.098;2022-07-05T00:29:50;97131.41;;;22.50;100.00
7614;BME280;3848;42.016;23.098;2022-07-05T00:32:17;97137.34;;;22.52;100.00
7614;BME280;3848;42.016;23.098;2022-07-05T00:34:44;97135.25;;;22.43;100.00
7614;BME280;3848;42.016;23.098;2022-07-05T00:37:11;97127.91;;;22.36;100.00
7614;BME280;3848;42.016;23.098;2022-07-05T00:39:38;97127.91;;;22.36;100.00
7614;BME280;3848;42.016;23.098;2022-07-05T00:42:04;97115.41;;;22.28;100.00
7614;BME280;3848;42.016;23.098;2022-07-05T00:44:33;97130.75;;;22.31;100.00
7614;BME280;3848;42.016;23.098;2022-07-05T00:47:02;97131.59;;;22.32;100.00
7614;BME280;3848;42.016;23.098;2022-07-05T00:49:30;97134.28;;;22.30;100.00
7614;BME280;3848;42.016;23.098;2022-07-05T00:51:58;97133.00;;;22.21;100.00
7614;BME280;3848;42.016;23.098;2022-07-05T00:54:26;97135.94;;;22.15;100.00
7614;BME280;3848;42.016;23.098;2022-07-05T00:56:53;97147.47;;;22.10;100.00
7614;BME280;3848;42.016;23.098;2022-07-05T00:59:21;97142.19;;;22.11;100.00
7614;BME280;3848;42.016;23.098;2022-07-05T01:01:48;97145.63;;;22.12;100.00
7614;BME280;3848;42.016;23.098;2022-07-05T01:04:16;97146.91;;;22.03;100.00
7614;BME280;3848;42.016;23.098;2022-07-05T01:06:46;97138.31;;;22.03;100.00
7614;BME280;3848;42.016;23.098;2022-07-05T01:09:15;97134.38;;;21.96;100.00
7614;BME280;3848;42.016;23.098;2022-07-05T01:11:43;97135.38;;;21.93;100.00
7614;BME280;3848;42.016;23.098;2022-07-05T01:14:11;97145.06;;;21.89;100.00
7614;BME280;3848;42.016;23.098;2022-07-05T01:16:39;97146.38;;;21.81;100.00
7614;BME280;3848;42.016;23.098;2022-07-05T01:19:07;97149.81;;;21.81;100.00
7614;BME280;3848;42.016;23.098;2022-07-05T01:21:39;97142.94;;;21.80;100.00
7614;BME280;3848;42.016;23.098;2022-07-05T01:24:08;97147.78;;;21.71;100.00
7614;BME280;3848;42.016;23.098;2022-07-05T01:26:36;97145.50;;;21.65;100.00
7614;BME280;3848;42.016;23.098;2022-07-05T01:29:04;97147.50;;;21.59;100.00
7614;BME280;3848;42.016;23.098;2022-07-05T01:31:31;97133.94;;;21.39;100.00
7614;BME280;3848;42.016;23.098;2022-07-05T01:33:58;97150.44;;;21.36;100.00
7614;BME280;3848;42.016;23.098;2022-07-05T01:36:25;97156.44;;;21.37;100.00
7614;BME280;3848;42.016;23.098;2022-07-05T01:38:52;97160.78;;;21.36;100.00
7614;BME280;3848;42.016;23.098;2022-07-05T01:41:21;97157.06;;;21.24;100.00
7614;BME280;3848;42.016;23.098;2022-07-05T01:43:47;97160.25;;;21.29;100.00
7614;BME280;3848;42.016;23.098;2022-07-05T01:46:15;97161.25;;;21.27;100.00
7614;BME280;3848;42.016;23.098;2022-07-05T01:48:44;97167.78;;;21.34;100.00
7614;BME280;3848;42.016;23.098;2022-07-05T01:51:18;97167.25;;;21.27;100.00
7614;BME280;3848;42.016;23.098;2022-07-05T01:53:46;97156.41;;;21.19;100.00
7614;BME280;3848;42.016;23.098;2022-07-05T01:56:15;97161.50;;;21.21;100.00
7614;BME280;3848;42.016;23.098;2022-07-05T01:58:44;97161.50;;;21.21;100.00
7614;BME280;3848;42.016;23.098;2022-07-05T02:01:12;97167.81;;;21.15;100.00
7614;BME280;3848;42.016;23.098;2022-07-05T02:03:40;97169.66;;;21.13;100.00
7614;BME280;3848;42.016;23.098;2022-07-05T02:06:07;97165.16;;;21.17;100.00
7614;BME280;3848;42.016;23.098;2022-07-05T02:08:35;97166.75;;;21.19;100.00
7614;BME280;3848;42.016;23.098;2022-07-05T02:11:02;97163.25;;;21.20;100.00
7614;BME280;3848;42.016;23.098;2022-07-05T02:13:29;97157.41;;;21.17;100.00
7614;BME280;3848;42.016;23.098;2022-07-05T02:15:58;97166.00;;;21.17;100.00
7614;BME280;3848;42.016;23.098;2022-07-05T02:18:24;97165.41;;;21.12;100.00
7614;BME280;3848;42.016;23.098;2022-07-05T02:20:51;97165.56;;;21.09;100.00
7614;BME280;3848;42.016;23.098;2022-07-05T02:23:18;97159.16;;;20.99;100.00
7614;BME280;3848;42.016;23.098;2022-07-05T02:25:45;97164.47;;;20.96;100.00
7614;BME280;3848;42.016;23.098;2022-07-05T02:28:12;97170.41;;;20.98;100.00
7614;BME280;3848;42.016;23.098;2022-07-05T02:30:39;97162.97;;;20.92;100.00
7614;BME280;3848;42.016;23.098;2022-07-05T02:33:08;97155.66;;;20.83;100.00
7614;BME280;3848;42.016;23.098;2022-07-05T02:35:34;97164.09;;;20.86;100.00
7614;BME280;3848;42.016;23.098;2022-07-05T02:38:03;97176.59;;;20.77;100.00
7614;BME280;3848;42.016;23.098;2022-07-05T02:40:30;97188.16;;;20.69;100.00
7614;BME280;3848;42.016;23.098;2022-07-05T02:42:56;97173.66;;;20.67;100.00
7614;BME280;3848;42.016;23.098;2022-07-05T02:45:23;97168.47;;;20.67;100.00
7614;BME280;3848;42.016;23.098;2022-07-05T02:47:50;97176.84;;;20.72;100.00
7614;BME280;3848;42.016;23.098;2022-07-05T02:50:19;97179.69;;;20.85;100.00
7614;BME280;3848;42.016;23.098;2022-07-05T02:52:45;97170.25;;;20.84;100.00
7614;BME280;3848;42.016;23.098;2022-07-05T02:55:12;97168.50;;;20.84;100.00
7614;BME280;3848;42.016;23.098;2022-07-05T02:57:39;97172.28;;;20.77;100.00
7614;BME280;3848;42.016;23.098;2022-07-05T03:00:07;97174.94;;;20.76;100.00
7614;BME280;3848;42.016;23.098;2022-07-05T03:02:34;97176.06;;;20.70;100.00
7614;BME280;3848;42.016;23.098;2022-07-05T03:05:01;97143.59;;;20.47;100.00
7614;BME280;3848;42.016;23.098;2022-07-05T03:07:29;97177.47;;;20.58;100.00
7614;BME280;3848;42.016;23.098;2022-07-05T03:09:56;97183.38;;;20.62;100.00
7614;BME280;3848;42.016;23.098;2022-07-05T03:12:23;97179.91;;;20.61;100.00
7614;BME280;3848;42.016;23.098;2022-07-05T03:14:50;97168.97;;;20.56;100.00
7614;BME280;3848;42.016;23.098;2022-07-05T03:17:17;97175.66;;;20.60;100.00
7614;BME280;3848;42.016;23.098;2022-07-05T03:19:43;97175.81;;;20.57;100.00
7614;BME280;3848;42.016;23.098;2022-07-05T03:22:10;97183.56;;;20.57;100.00
7614;BME280;3848;42.016;23.098;2022-07-05T03:24:38;97179.16;;;20.59;100.00
7614;BME280;3848;42.016;23.098;2022-07-05T03:27:05;97175.72;;;20.59;100.00
7614;BME280;3848;42.016;23.098;2022-07-05T03:29:32;97178.84;;;20.48;100.00
7614;BME280;3848;42.016;23.098;2022-07-05T03:31:59;97176.78;;;20.36;100.00
7614;BME280;3848;42.016;23.098;2022-07-05T03:34:26;97184.59;;;20.34;100.00
7614;BME280;3848;42.016;23.098;2022-07-05T03:36:53;97187.19;;;20.34;100.00
7614;BME280;3848;42.016;23.098;2022-07-05T03:39:20;97193.94;;;20.37;100.00
7614;BME280;3848;42.016;23.098;2022-07-05T03:41:48;97193.94;;;20.37;100.00
7614;BME280;3848;42.016;23.098;2022-07-05T03:44:15;97190.88;;;20.29;100.00
7614;BME280;3848;42.016;23.098;2022-07-05T03:46:42;97187.63;;;20.25;100.00
7614;BME280;3848;42.016;23.098;2022-07-05T03:49:09;97183.50;;;20.21;100.00
7614;BME280;3848;42.016;23.098;2022-07-05T03:51:35;97190.28;;;20.24;100.00
7614;BME280;3848;42.016;23.098;2022-07-05T03:54:02;97185.78;;;20.27;100.00
7614;BME280;3848;42.016;23.098;2022-07-05T03:56:30;97183.84;;;20.32;100.00
7614;BME280;3848;42.016;23.098;2022-07-05T03:58:58;97186.19;;;20.37;100.00
7614;BME280;3848;42.016;23.098;2022-07-05T04:01:25;97161.72;;;20.27;100.00
7614;BME280;3848;42.016;23.098;2022-07-05T04:03:52;97180.28;;;20.35;100.00
7614;BME280;3848;42.016;23.098;2022-07-05T04:06:19;97178.69;;;20.32;100.00
7614;BME280;3848;42.016;23.098;2022-07-05T04:08:46;97178.44;;;20.37;100.00
7614;BME280;3848;42.016;23.098;2022-07-05T04:11:13;97187.78;;;20.39;100.00
7614;BME280;3848;42.016;23.098;2022-07-05T04:13:41;97181.50;;;20.47;100.00
7614;BME280;3848;42.016;23.098;2022-07-05T04:16:10;97175.19;;;20.52;100.00
7614;BME280;3848;42.016;23.098;2022-07-05T04:18:37;97176.72;;;20.56;100.00
7614;BME280;3848;42.016;23.098;2022-07-05T04:21:04;97179.88;;;20.63;100.00
7614;BME280;3848;42.016;23.098;2022-07-05T04:23:32;97173.06;;;20.60;100.00
7614;BME280;3848;42.016;23.098;2022-07-05T04:26:00;97172.81;;;20.66;100.00
7614;BME280;3848;42.016;23.098;2022-07-05T04:28:27;97187.78;;;20.77;100.00
7614;BME280;3848;42.016;23.098;2022-07-05T04:30:55;97164.91;;;20.69;100.00
7614;BME280;3848;42.016;23.098;2022-07-05T04:33:23;97189.25;;;20.83;100.00
7614;BME280;3848;42.016;23.098;2022-07-05T04:35:51;97193.19;;;20.90;100.00
7614;BME280;3848;42.016;23.098;2022-07-05T04:38:18;97187.66;;;20.97;100.00
7614;BME280;3848;42.016;23.098;2022-07-05T04:40:45;97183.97;;;21.03;100.00
7614;BME280;3848;42.016;23.098;2022-07-05T04:43:11;97185.31;;;21.10;100.00
7614;BME280;3848;42.016;23.098;2022-07-05T04:45:38;97203.94;;;21.17;100.00
7614;BME280;3848;42.016;23.098;2022-07-05T04:48:05;97199.59;;;21.17;100.00
7614;BME280;3848;42.016;23.098;2022-07-05T04:50:33;97193.25;;;21.24;100.00
7614;BME280;3848;42.016;23.098;2022-07-05T04:53:00;97194.47;;;21.35;100.00
7614;BME280;3848;42.016;23.098;2022-07-05T04:55:27;97185.88;;;21.34;100.00
7614;BME280;3848;42.016;23.098;2022-07-05T04:57:54;97197.28;;;21.47;100.00
7614;BME280;3848;42.016;23.098;2022-07-05T05:00:21;97202.22;;;21.52;100.00
7614;BME280;3848;42.016;23.098;2022-07-05T05:02:48;97198.72;;;21.53;100.00
7614;BME280;3848;42.016;23.098;2022-07-05T05:05:15;97191.72;;;21.55;100.00
7614;BME280;3848;42.016;23.098;2022-07-05T05:07:44;97165.41;;;21.47;100.00
7614;BME280;3848;42.016;23.098;2022-07-05T05:10:11;97192.06;;;21.65;100.00
7614;BME280;3848;42.016;23.098;2022-07-05T05:12:38;97201.94;;;21.74;100.00
7614;BME280;3848;42.016;23.098;2022-07-05T05:15:07;97197.44;;;21.77;100.00
7614;BME280;3848;42.016;23.098;2022-07-05T05:17:36;97197.28;;;21.80;100.00
7614;BME280;3848;42.016;23.098;2022-07-05T05:20:05;97201.31;;;21.86;100.00
7614;BME280;3848;42.016;23.098;2022-07-05T05:22:32;97191.66;;;21.89;100.00
7614;BME280;3848;42.016;23.098;2022-07-05T05:25:01;97202.34;;;21.99;100.00
7614;BME280;3848;42.016;23.098;2022-07-05T05:27:28;97169.94;;;21.92;100.00
7614;BME280;3848;42.016;23.098;2022-07-05T05:29:56;97194.47;;;22.18;100.00
7614;BME280;3848;42.016;23.098;2022-07-05T05:32:23;97181.34;;;22.21;100.00
7614;BME280;3848;42.016;23.098;2022-07-05T05:34:49;97190.06;;;22.36;100.00
7614;BME280;3848;42.016;23.098;2022-07-05T05:37:16;97184.88;;;22.51;100.00
7614;BME280;3848;42.016;23.098;2022-07-05T05:39:43;97183.03;;;22.54;100.00
7614;BME280;3848;42.016;23.098;2022-07-05T05:42:11;97179.72;;;22.51;100.00
7614;BME280;3848;42.016;23.098;2022-07-05T05:44:38;97178.09;;;22.65;100.00
7614;BME280;3848;42.016;23.098;2022-07-05T05:47:05;97185.53;;;22.71;100.00
7614;BME280;3848;42.016;23.098;2022-07-05T05:49:32;97174.81;;;22.77;100.00
7614;BME280;3848;42.016;23.098;2022-07-05T05:51:59;97186.97;;;22.92;100.00
7614;BME280;3848;42.016;23.098;2022-07-05T05:54:26;97182.69;;;22.91;100.00
7614;BME280;3848;42.016;23.098;2022-07-05T05:56:53;97185.84;;;22.96;100.00
7614;BME280;3848;42.016;23.098;2022-07-05T05:59:21;97167.28;;;22.88;100.00
7614;BME280;3848;42.016;23.098;2022-07-05T06:01:50;97186.34;;;23.03;100.00
7614;BME280;3848;42.016;23.098;2022-07-05T06:04:17;97195.34;;;23.11;100.00
7614;BME280;3848;42.016;23.098;2022-07-05T06:06:44;97193.72;;;23.25;100.00
7614;BME280;3848;42.016;23.098;2022-07-05T06:09:10;97195.94;;;23.31;100.00
7614;BME280;3848;42.016;23.098;2022-07-05T06:11:37;97189.41;;;23.39;100.00
7614;BME280;3848;42.016;23.098;2022-07-05T06:14:04;97193.84;;;23.52;100.00
7614;BME280;3848;42.016;23.098;2022-07-05T06:16:33;97182.47;;;23.54;100.00
7614;BME280;3848;42.016;23.098;2022-07-05T06:19:00;97185.66;;;23.59;100.00
7614;BME280;3848;42.016;23.098;2022-07-05T06:21:27;97187.59;;;23.70;100.00
7614;BME280;3848;42.016;23.098;2022-07-05T06:23:54;97189.66;;;23.79;100.00
7614;BME280;3848;42.016;23.098;2022-07-05T06:26:21;97174.38;;;23.75;100.00
7614;BME280;3848;42.016;23.098;2022-07-05T06:28:48;97195.50;;;23.83;100.00
7614;BME280;3848;42.016;23.098;2022-07-05T06:31:15;97178.34;;;23.80;100.00
7614;BME280;3848;42.016;23.098;2022-07-05T06:33:43;97187.53;;;24.00;100.00
7614;BME280;3848;42.016;23.098;2022-07-05T06:36:10;97172.94;;;24.12;100.00
7614;BME280;3848;42.016;23.098;2022-07-05T06:38:37;97181.09;;;24.34;100.00
7614;BME280;3848;42.016;23.098;2022-07-05T06:41:04;97169.53;;;24.40;100.00
7614;BME280;3848;42.016;23.098;2022-07-05T06:43:31;97175.78;;;24.50;100.00
7614;BME280;3848;42.016;23.098;2022-07-05T06:45:58;97180.53;;;24.70;100.00
7614;BME280;3848;42.016;23.098;2022-07-05T06:48:25;97171.72;;;24.73;100.00
7614;BME280;3848;42.016;23.098;2022-07-05T06:50:53;97175.06;;;24.75;100.00
7614;BME280;3848;42.016;23.098;2022-07-05T06:53:20;97136.56;;;24.67;100.00
7614;BME280;3848;42.016;23.098;2022-07-05T06:55:47;97170.03;;;24.99;100.00
7614;BME280;3848;42.016;23.098;2022-07-05T06:58:14;97157.41;;;25.07;100.00
7614;BME280;3848;42.016;23.098;2022-07-05T07:00:42;97162.59;;;25.19;100.00
7614;BME280;3848;42.016;23.098;2022-07-05T07:03:09;97153.91;;;25.33;100.00
7614;BME280;3848;42.016;23.098;2022-07-05T07:05:36;97155.38;;;25.50;100.00
7614;BME280;3848;42.016;23.098;2022-07-05T07:08:04;97148.28;;;25.65;98.06
7614;BME280;3848;42.016;23.098;2022-07-05T07:10:48;97151.84;;;25.76;96.19
7614;BME280;3848;42.016;23.098;2022-07-05T07:13:15;97146.41;;;25.92;95.49
7614;BME280;3848;42.016;23.098;2022-07-05T07:15:42;97136.50;;;25.97;99.19
7614;BME280;3848;42.016;23.098;2022-07-05T07:18:09;97141.59;;;26.11;93.79
7614;BME280;3848;42.016;23.098;2022-07-05T07:20:36;97142.41;;;26.25;95.86
7614;BME280;3848;42.016;23.098;2022-07-05T07:23:04;97143.41;;;26.35;90.13
7614;BME280;3848;42.016;23.098;2022-07-05T07:25:31;97141.53;;;26.37;91.45
7614;BME280;3848;42.016;23.098;2022-07-05T07:27:59;97132.06;;;26.36;89.11
7614;BME280;3848;42.016;23.098;2022-07-05T07:30:27;97141.66;;;26.35;88.42
7614;BME280;3848;42.016;23.098;2022-07-05T07:32:55;97123.72;;;26.31;83.57
7614;BME280;3848;42.016;23.098;2022-07-05T07:35:22;97139.31;;;26.43;89.36
7614;BME280;3848;42.016;23.098;2022-07-05T07:37:49;97124.50;;;26.44;90.01
7614;BME280;3848;42.016;23.098;2022-07-05T07:40:17;97140.53;;;26.74;85.36
7614;BME280;3848;42.016;23.098;2022-07-05T07:42:44;97103.59;;;26.57;100.00
7614;BME280;3848;42.016;23.098;2022-07-05T07:45:11;97095.78;;;26.57;86.29
7614;BME280;3848;42.016;23.098;2022-07-05T07:47:38;97129.44;;;27.08;84.38
7614;BME280;3848;42.016;23.098;2022-07-05T07:50:06;97130.06;;;27.22;73.72
7614;BME280;3848;42.016;23.098;2022-07-05T07:52:33;97132.00;;;27.31;74.28
7614;BME280;3848;42.016;23.098;2022-07-05T07:55:00;97127.72;;;27.30;72.37
7614;BME280;3848;42.016;23.098;2022-07-05T07:57:29;97114.31;;;27.35;72.18
7614;BME280;3848;42.016;23.098;2022-07-05T07:59:56;97121.69;;;27.52;80.82
7614;BME280;3848;42.016;23.098;2022-07-05T08:02:23;97117.09;;;27.78;70.98
7614;BME280;3848;42.016;23.098;2022-07-05T08:04:50;97115.16;;;28.03;71.96
7614;BME280;3848;42.016;23.098;2022-07-05T08:07:17;97119.19;;;28.18;67.12
7614;BME280;3848;42.016;23.098;2022-07-05T08:09:45;97100.19;;;28.05;75.71
7614;BME280;3848;42.016;23.098;2022-07-05T08:12:12;97106.81;;;28.31;72.05
7614;BME280;3848;42.016;23.098;2022-07-05T08:14:40;97095.44;;;28.21;68.43
7614;BME280;3848;42.016;23.098;2022-07-05T08:17:07;97106.56;;;28.45;63.59
7614;BME280;3848;42.016;23.098;2022-07-05T08:19:35;97112.25;;;28.50;64.22
7614;BME280;3848;42.016;23.098;2022-07-05T08:22:20;97101.88;;;28.60;64.89
7614;BME280;3848;42.016;23.098;2022-07-05T08:24:48;97104.19;;;28.86;66.21
7614;BME280;3848;42.016;23.098;2022-07-05T08:27:15;97100.72;;;29.06;62.91
7614;BME280;3848;42.016;23.098;2022-07-05T08:29:43;97100.59;;;29.28;63.39
7614;BME280;3848;42.016;23.098;2022-07-05T08:32:10;97100.84;;;29.25;59.39
7614;BME280;3848;42.016;23.098;2022-07-05T08:34:37;97097.03;;;29.50;55.52
7614;BME280;3848;42.016;23.098;2022-07-05T08:37:05;97075.38;;;29.79;61.78
7614;BME280;3848;42.016;23.098;2022-07-05T08:39:33;97084.38;;;29.95;54.84
7614;BME280;3848;42.016;23.098;2022-07-05T08:42:01;97069.09;;;30.00;55.60
7614;BME280;3848;42.016;23.098;2022-07-05T08:44:30;97067.63;;;30.27;55.09
7614;BME280;3848;42.016;23.098;2022-07-05T08:47:02;97071.38;;;30.34;53.75
7614;BME280;3848;42.016;23.098;2022-07-05T08:49:30;97046.66;;;30.37;60.86
7614;BME280;3848;42.016;23.098;2022-07-05T08:52:00;97071.94;;;30.76;54.03
7614;BME280;3848;42.016;23.098;2022-07-05T08:54:30;97056.88;;;31.07;56.67
7614;BME280;3848;42.016;23.098;2022-07-05T08:56:57;97060.16;;;31.19;52.90
7614;BME280;3848;42.016;23.098;2022-07-05T08:59:24;97037.75;;;31.34;50.51
7614;BME280;3848;42.016;23.098;2022-07-05T09:01:55;97036.97;;;31.51;50.30
7614;BME280;3848;42.016;23.098;2022-07-05T09:04:29;97044.41;;;31.93;50.90
7614;BME280;3848;42.016;23.098;2022-07-05T09:07:02;97035.13;;;32.17;49.79
7614;BME280;3848;42.016;23.098;2022-07-05T09:09:31;97031.97;;;31.85;49.62
7614;BME280;3848;42.016;23.098;2022-07-05T09:12:00;97028.94;;;32.26;50.27
7614;BME280;3848;42.016;23.098;2022-07-05T09:14:27;97029.94;;;32.25;45.70
7614;BME280;3848;42.016;23.098;2022-07-05T09:16:54;97016.75;;;32.34;47.25
7614;BME280;3848;42.016;23.098;2022-07-05T09:19:21;97016.78;;;32.60;46.09
7614;BME280;3848;42.016;23.098;2022-07-05T09:22:00;97021.38;;;32.76;45.75
7614;BME280;3848;42.016;23.098;2022-07-05T09:24:28;97018.56;;;32.95;45.84
7614;BME280;3848;42.016;23.098;2022-07-05T09:27:02;97010.00;;;32.93;45.64
7614;BME280;3848;42.016;23.098;2022-07-05T09:29:29;97008.28;;;32.84;45.67
7614;BME280;3848;42.016;23.098;2022-07-05T09:31:56;97008.19;;;32.94;45.07
7614;BME280;3848;42.016;23.098;2022-07-05T09:34:23;97005.53;;;33.20;43.81
7614;BME280;3848;42.016;23.098;2022-07-05T09:36:53;97003.84;;;33.37;43.92
7614;BME280;3848;42.016;23.098;2022-07-05T09:39:35;96996.88;;;33.61;43.55
7614;BME280;3848;42.016;23.098;2022-07-05T09:42:13;96966.81;;;33.88;42.35
7614;BME280;3848;42.016;23.098;2022-07-05T09:44:43;96986.34;;;34.52;41.03
7614;BME280;3848;42.016;23.098;2022-07-05T09:47:12;96953.88;;;34.60;41.21
7614;BME280;3848;42.016;23.098;2022-07-05T09:49:42;96974.63;;;34.88;40.59
7614;BME280;3848;42.016;23.098;2022-07-05T09:52:11;96964.50;;;35.07;39.94
7614;BME280;3848;42.016;23.098;2022-07-05T09:55:01;96974.25;;;35.07;40.03
7614;BME280;3848;42.016;23.098;2022-07-05T09:57:28;96971.25;;;35.18;39.55
7614;BME280;3848;42.016;23.098;2022-07-05T09:59:58;96947.91;;;35.38;41.87
7614;BME280;3848;42.016;23.098;2022-07-05T10:02:34;96954.84;;;36.01;40.98
7614;BME280;3848;42.016;23.098;2022-07-05T10:05:09;96926.09;;;36.21;38.42
7614;BME280;3848;42.016;23.098;2022-07-05T10:07:40;96956.66;;;36.69;36.84
7614;BME280;3848;42.016;23.098;2022-07-05T10:10:08;96939.00;;;36.61;36.96
7614;BME280;3848;42.016;23.098;2022-07-05T10:12:36;96946.16;;;36.76;37.14
7614;BME280;3848;42.016;23.098;2022-07-05T10:15:04;96948.41;;;36.87;36.92
7614;BME280;3848;42.016;23.098;2022-07-05T10:17:36;96951.44;;;37.28;35.65
7614;BME280;3848;42.016;23.098;2022-07-05T10:20:07;96943.06;;;37.46;34.92
7614;BME280;3848;42.016;23.098;2022-07-05T10:22:36;96939.34;;;37.40;35.66
7614;BME280;3848;42.016;23.098;2022-07-05T10:25:07;96934.28;;;37.60;34.11
7614;BME280;3848;42.016;23.098;2022-07-05T10:27:36;96929.50;;;37.34;35.19
7614;BME280;3848;42.016;23.098;2022-07-05T10:30:04;96902.91;;;36.23;36.30
7614;BME280;3848;42.016;23.098;2022-07-05T10:32:33;96934.72;;;36.75;36.29
7614;BME280;3848;42.016;23.098;2022-07-05T10:35:01;96930.41;;;36.59;34.52
7614;BME280;3848;42.016;23.098;2022-07-05T10:37:30;96925.44;;;36.42;34.90
7614;BME280;3848;42.016;23.098;2022-07-05T10:39:59;96922.47;;;36.59;36.88
7614;BME280;3848;42.016;23.098;2022-07-05T10:42:32;96908.88;;;36.77;34.89
7614;BME280;3848;42.016;23.098;2022-07-05T10:45:01;96904.06;;;36.96;37.64
7614;BME280;3848;42.016;23.098;2022-07-05T10:47:28;96896.66;;;37.20;34.72
7614;BME280;3848;42.016;23.098;2022-07-05T10:50:05;96894.66;;;37.08;36.57
7614;BME280;3848;42.016;23.098;2022-07-05T10:52:32;96895.81;;;37.49;34.75
7614;BME280;3848;42.016;23.098;2022-07-05T10:55:21;96880.13;;;37.91;35.49
7614;BME280;3848;42.016;23.098;2022-07-05T10:58:23;96894.19;;;38.62;35.00
7614;BME280;3848;42.016;23.098;2022-07-05T11:04:27;96883.56;;;39.31;31.43
7614;BME280;3848;42.016;23.098;2022-07-05T11:06:58;96880.88;;;39.24;30.80
7614;BME280;3848;42.016;23.098;2022-07-05T11:09:25;96873.13;;;39.29;31.20
7614;BME280;3848;42.016;23.098;2022-07-05T11:12:11;96871.06;;;39.18;30.28
7614;BME280;3848;42.016;23.098;2022-07-05T11:14:46;96871.13;;;39.38;31.64
7614;BME280;3848;42.016;23.098;2022-07-05T11:20:08;96882.09;;;39.15;31.24
7614;BME280;3848;42.016;23.098;2022-07-05T11:22:36;96868.25;;;39.40;30.31
7614;BME280;3848;42.016;23.098;2022-07-05T11:25:05;96873.69;;;39.66;30.81
7614;BME280;3848;42.016;23.098;2022-07-05T11:27:33;96871.66;;;39.94;29.67
7614;BME280;3848;42.016;23.098;2022-07-05T11:30:02;96868.81;;;40.16;30.60
7614;BME280;3848;42.016;23.098;2022-07-05T11:32:39;96868.03;;;40.48;30.68
7614;BME280;3848;42.016;23.098;2022-07-05T11:35:14;96861.41;;;40.71;30.50
7614;BME280;3848;42.016;23.098;2022-07-05T11:38:04;96858.41;;;41.19;30.34
7614;BME280;3848;42.016;23.098;2022-07-05T11:40:33;96858.53;;;41.37;29.93
7614;BME280;3848;42.016;23.098;2022-07-05T11:43:00;96850.44;;;41.57;28.99
7614;BME280;3848;42.016;23.098;2022-07-05T11:45:30;96853.81;;;41.39;29.77
7614;BME280;3848;42.016;23.098;2022-07-05T11:47:57;96844.97;;;41.45;31.14
7614;BME280;3848;42.016;23.098;2022-07-05T11:50:26;96848.13;;;41.60;29.83
7614;BME280;3848;42.016;23.098;2022-07-05T11:52:53;96834.31;;;41.77;29.25
7614;BME280;3848;42.016;23.098;2022-07-05T11:55:20;96830.00;;;42.00;28.96
7614;BME280;3848;42.016;23.098;2022-07-05T11:57:49;96825.25;;;42.09;28.76
7614;BME280;3848;42.016;23.098;2022-07-05T12:00:25;96823.94;;;42.18;27.85
7614;BME280;3848;42.016;23.098;2022-07-05T12:02:54;96815.78;;;41.82;27.73
7614;BME280;3848;42.016;23.098;2022-07-05T12:05:21;96810.16;;;41.58;28.21
7614;BME280;3848;42.016;23.098;2022-07-05T12:07:49;96811.59;;;41.67;28.28
7614;BME280;3848;42.016;23.098;2022-07-05T12:10:17;96786.66;;;41.49;27.56
7614;BME280;3848;42.016;23.098;2022-07-05T12:13:05;96798.81;;;41.38;27.93
7614;BME280;3848;42.016;23.098;2022-07-05T12:15:33;96769.50;;;40.93;28.28
7614;BME280;3848;42.016;23.098;2022-07-05T12:18:04;96793.16;;;41.15;27.85
7614;BME280;3848;42.016;23.098;2022-07-05T12:20:33;96789.28;;;41.24;27.40
7614;BME280;3848;42.016;23.098;2022-07-05T12:23:00;96785.28;;;41.64;27.91
7614;BME280;3848;42.016;23.098;2022-07-05T12:25:29;96776.81;;;41.74;26.62
7614;BME280;3848;42.016;23.098;2022-07-05T12:27:57;96761.56;;;41.25;27.09
7614;BME280;3848;42.016;23.098;2022-07-05T12:30:27;96775.78;;;41.43;26.76
7614;BME280;3848;42.016;23.098;2022-07-05T12:32:56;96765.06;;;41.50;26.04
7614;BME280;3848;42.016;23.098;2022-07-05T12:35:33;96763.09;;;41.39;27.61
7614;BME280;3848;42.016;23.098;2022-07-05T12:38:05;96765.72;;;41.77;26.83
7614;BME280;3848;42.016;23.098;2022-07-05T12:40:33;96765.16;;;42.18;26.49
7614;BME280;3848;42.016;23.098;2022-07-05T12:43:02;96760.66;;;42.55;25.82
7614;BME280;3848;42.016;23.098;2022-07-05T12:45:29;96750.00;;;42.85;25.87
7614;BME280;3848;42.016;23.098;2022-07-05T12:47:57;96744.47;;;43.17;24.44
7614;BME280;3848;42.016;23.098;2022-07-05T12:50:28;96717.72;;;43.17;24.58
7614;BME280;3848;42.016;23.098;2022-07-05T12:53:02;96734.00;;;43.27;25.03
7614;BME280;3848;42.016;23.098;2022-07-05T12:55:58;96736.38;;;43.05;24.13
7614;BME280;3848;42.016;23.098;2022-07-05T12:58:51;96734.75;;;43.04;25.70
7614;BME280;3848;42.016;23.098;2022-07-05T13:01:24;96738.47;;;42.92;26.09
7614;BME280;3848;42.016;23.098;2022-07-05T13:03:58;96743.81;;;42.73;24.20
7614;BME280;3848;42.016;23.098;2022-07-05T13:06:43;96732.28;;;42.73;25.59
7614;BME280;3848;42.016;23.098;2022-07-05T13:09:13;96710.81;;;42.79;25.64
7614;BME280;3848;42.016;23.098;2022-07-05T13:11:40;96735.00;;;43.03;26.76
7614;BME280;3848;42.016;23.098;2022-07-05T13:14:07;96733.09;;;42.73;25.80
7614;BME280;3848;42.016;23.098;2022-07-05T13:16:34;96735.03;;;42.29;26.11
7614;BME280;3848;42.016;23.098;2022-07-05T13:19:08;96716.06;;;41.94;26.50